createdAt,value
2019-03-09T00:00:46.947Z,998.23
2019-03-09T00:01:46.996Z,998.16
2019-03-09T00:02:46.928Z,998.22
2019-03-09T00:03:46.954Z,998.18
2019-03-09T00:04:46.921Z,998.16
2019-03-09T00:05:46.896Z,998.16
2019-03-09T00:06:46.895Z,998.03
2019-03-09T00:07:46.870Z,998.00
2019-03-09T00:08:46.855Z,998.06
2019-03-09T00:09:46.849Z,997.99
2019-03-09T00:10:46.839Z,998.00
2019-03-09T00:11:46.879Z,997.98
2019-03-09T00:12:46.815Z,997.88
2019-03-09T00:13:46.811Z,997.91
2019-03-09T00:14:46.796Z,997.90
2019-03-09T00:15:46.779Z,997.83
2019-03-09T00:16:46.787Z,997.85
2019-03-09T00:17:46.762Z,997.81
2019-03-09T00:18:46.746Z,997.82
2019-03-09T00:19:46.745Z,997.80
2019-03-09T00:20:46.732Z,997.77
2019-03-09T00:21:46.744Z,997.76
2019-03-09T00:22:46.722Z,997.74
2019-03-09T00:23:46.706Z,997.69
2019-03-09T00:24:46.694Z,997.71
2019-03-09T00:25:46.672Z,997.70
2019-03-09T00:26:46.684Z,997.70
2019-03-09T00:27:46.656Z,997.68
2019-03-09T00:28:46.660Z,997.52
2019-03-09T00:29:46.633Z,997.62
2019-03-09T00:30:46.638Z,997.59
2019-03-09T00:31:46.636Z,997.48
2019-03-09T00:32:46.605Z,997.50
2019-03-09T00:33:46.588Z,997.54
2019-03-09T00:34:46.588Z,997.49
2019-03-09T00:35:46.570Z,997.50
2019-03-09T00:36:46.568Z,997.45
2019-03-09T00:37:46.547Z,997.47
2019-03-09T00:38:46.542Z,997.37
2019-03-09T00:39:46.517Z,997.36
2019-03-09T00:40:46.506Z,997.32
2019-03-09T00:41:46.527Z,997.28
2019-03-09T00:42:46.494Z,997.31
2019-03-09T00:43:46.487Z,997.27
2019-03-09T00:44:46.477Z,997.24
2019-03-09T00:45:46.471Z,997.23
2019-03-09T00:46:46.497Z,997.18
2019-03-09T00:47:46.444Z,997.15
2019-03-09T00:48:46.428Z,997.16
2019-03-09T00:49:46.413Z,997.10
2019-03-09T00:50:46.416Z,997.09
2019-03-09T00:51:46.425Z,997.12
2019-03-09T00:52:46.394Z,997.12
2019-03-09T00:53:46.366Z,997.05
2019-03-09T00:54:46.362Z,997.08
2019-03-09T00:55:46.344Z,997.06
2019-03-09T00:56:46.344Z,997.01
2019-03-09T00:57:46.352Z,997.04
2019-03-09T00:58:46.329Z,996.97
2019-03-09T00:59:46.310Z,996.95
2019-03-09T01:00:46.307Z,996.92
2019-03-09T01:01:46.293Z,996.87
2019-03-09T01:02:46.298Z,996.89
2019-03-09T01:03:46.263Z,996.88
2019-03-09T01:04:46.262Z,996.84
2019-03-09T01:05:46.243Z,996.79
2019-03-09T01:06:46.241Z,996.77
2019-03-09T01:07:46.251Z,996.79
2019-03-09T01:08:46.217Z,996.73
2019-03-09T01:09:46.199Z,996.70
2019-03-09T01:10:47.106Z,996.67
2019-03-09T01:11:46.184Z,996.66
2019-03-09T01:12:46.197Z,996.62
2019-03-09T01:13:46.160Z,996.59
2019-03-09T01:14:46.153Z,996.66
2019-03-09T01:15:46.143Z,996.60
2019-03-09T01:16:46.116Z,996.54
2019-03-09T01:17:46.128Z,996.54
2019-03-09T01:18:46.105Z,996.48
2019-03-09T01:19:46.101Z,996.51
2019-03-09T01:20:46.088Z,996.52
2019-03-09T01:21:46.065Z,996.47
2019-03-09T01:23:55.285Z,996.42
2019-03-09T01:24:56.237Z,996.39
2019-03-09T01:25:56.228Z,996.37
2019-03-09T01:26:56.221Z,996.33
2019-03-09T01:27:56.230Z,996.33
2019-03-09T01:28:56.204Z,996.25
2019-03-09T01:29:56.190Z,996.13
2019-03-09T01:30:56.181Z,996.14
2019-03-09T01:31:56.170Z,996.12
2019-03-09T01:32:56.180Z,996.14
2019-03-09T01:33:56.149Z,996.08
2019-03-09T01:34:56.152Z,996.10
2019-03-09T01:35:56.129Z,996.03
2019-03-09T01:36:56.120Z,996.01
2019-03-09T01:37:56.128Z,995.97
2019-03-09T01:38:56.093Z,995.98
2019-03-09T01:39:56.072Z,995.97
2019-03-09T01:40:56.069Z,995.87
2019-03-09T01:41:56.059Z,995.84
2019-03-09T01:42:56.068Z,995.83
2019-03-09T01:43:56.030Z,995.85
2019-03-09T01:44:56.024Z,995.83
2019-03-09T01:45:56.012Z,995.75
2019-03-09T01:46:56.015Z,995.74
2019-03-09T01:47:56.013Z,995.74
2019-03-09T01:48:55.977Z,995.66
2019-03-09T01:49:55.979Z,995.69
2019-03-09T01:50:55.957Z,995.69
2019-03-09T01:51:55.948Z,995.68
2019-03-09T01:52:55.949Z,995.65
2019-03-09T01:53:55.943Z,995.59
2019-03-09T01:54:55.912Z,995.59
2019-03-09T01:55:55.908Z,995.55
2019-03-09T01:56:55.898Z,995.62
2019-03-09T01:57:55.903Z,995.57
2019-03-09T01:58:55.886Z,995.59
2019-03-09T01:59:55.860Z,995.61
2019-03-09T02:00:55.853Z,995.56
2019-03-09T02:01:55.847Z,995.58
2019-03-09T02:02:55.847Z,995.58
2019-03-09T02:03:55.814Z,995.47
2019-03-09T02:04:55.828Z,995.50
2019-03-09T02:05:55.805Z,995.60
2019-03-09T02:06:55.793Z,995.56
2019-03-09T02:07:55.795Z,995.58
2019-03-09T02:08:55.779Z,995.55
2019-03-09T02:09:55.755Z,995.54
2019-03-09T02:10:55.754Z,995.48
2019-03-09T02:11:55.733Z,995.42
2019-03-09T02:12:55.741Z,995.45
2019-03-09T02:13:55.702Z,995.43
2019-03-09T02:14:55.708Z,995.35
2019-03-09T02:15:55.723Z,995.30
2019-03-09T02:16:55.685Z,995.35
2019-03-09T02:17:55.677Z,995.33
2019-03-09T02:18:55.663Z,995.11
2019-03-09T02:19:55.638Z,995.31
2019-03-09T02:20:55.638Z,995.29
2019-03-09T02:21:55.623Z,995.25
2019-03-09T02:22:55.641Z,995.33
2019-03-09T02:23:55.607Z,995.28
2019-03-09T02:24:55.593Z,995.28
2019-03-09T02:25:55.576Z,995.27
2019-03-09T02:26:55.571Z,995.11
2019-03-09T02:27:55.581Z,995.20
2019-03-09T02:28:55.543Z,995.14
2019-03-09T02:29:55.535Z,995.13
2019-03-09T02:30:55.549Z,995.20
2019-03-09T02:31:55.510Z,995.13
2019-03-09T02:32:55.525Z,995.16
2019-03-09T02:33:55.509Z,995.00
2019-03-09T02:34:56.013Z,995.04
2019-03-09T02:35:55.480Z,995.03
2019-03-09T02:36:55.480Z,994.91
2019-03-09T02:37:55.471Z,994.96
2019-03-09T02:38:55.467Z,994.91
2019-03-09T02:39:55.432Z,994.85
2019-03-09T02:40:55.422Z,994.93
2019-03-09T02:41:55.419Z,994.83
2019-03-09T02:42:55.407Z,994.89
2019-03-09T02:43:55.414Z,994.84
2019-03-09T02:44:55.391Z,994.84
2019-03-09T02:45:55.372Z,994.84
2019-03-09T02:46:55.360Z,994.89
2019-03-09T02:47:55.350Z,994.79
2019-03-09T02:48:55.361Z,994.82
2019-03-09T02:49:55.525Z,994.78
2019-03-09T02:50:55.317Z,994.77
2019-03-09T02:51:55.291Z,994.74
2019-03-09T02:52:55.288Z,994.73
2019-03-09T02:53:55.289Z,994.78
2019-03-09T02:54:55.285Z,994.73
2019-03-09T02:55:55.254Z,994.66
2019-03-09T02:56:55.264Z,994.70
2019-03-09T02:57:55.228Z,994.68
2019-03-09T02:58:55.236Z,994.70
2019-03-09T02:59:55.221Z,994.61
2019-03-09T03:00:55.206Z,994.71
2019-03-09T03:01:55.189Z,994.57
2019-03-09T03:02:55.173Z,994.56
2019-03-09T03:03:55.210Z,994.54
2019-03-09T03:04:55.156Z,994.52
2019-03-09T03:05:55.150Z,994.49
2019-03-09T03:06:55.142Z,994.55
2019-03-09T03:07:55.137Z,994.60
2019-03-09T03:08:55.139Z,994.51
2019-03-09T03:09:55.114Z,994.48
2019-03-09T03:10:55.095Z,994.47
2019-03-09T03:11:55.093Z,994.44
2019-03-09T03:12:55.078Z,994.52
2019-03-09T03:13:55.077Z,994.37
2019-03-09T03:14:55.066Z,994.31
2019-03-09T03:15:55.049Z,994.42
2019-03-09T03:16:55.022Z,994.33
2019-03-09T03:17:55.033Z,994.37
2019-03-09T03:18:55.039Z,994.41
2019-03-09T03:19:54.997Z,994.32
2019-03-09T03:20:54.986Z,994.21
2019-03-09T03:21:54.975Z,994.31
2019-03-09T03:22:54.974Z,994.32
2019-03-09T03:25:04.170Z,994.25
2019-03-09T03:26:05.137Z,994.25
2019-03-09T03:27:05.125Z,994.29
2019-03-09T03:28:05.129Z,994.39
2019-03-09T03:29:05.113Z,994.34
2019-03-09T03:30:05.163Z,994.28
2019-03-09T03:31:05.082Z,994.33
2019-03-09T03:32:05.110Z,994.27
2019-03-09T03:33:05.057Z,994.20
2019-03-09T03:34:05.161Z,994.20
2019-03-09T03:35:05.042Z,994.29
2019-03-09T03:36:05.035Z,994.36
2019-03-09T03:37:05.009Z,994.29
2019-03-09T03:38:05.006Z,994.38
2019-03-09T03:39:05.012Z,994.33
2019-03-09T03:40:04.977Z,994.28
2019-03-09T03:41:04.976Z,994.21
2019-03-09T03:42:04.984Z,994.28
2019-03-09T03:43:04.946Z,994.26
2019-03-09T03:44:04.951Z,994.26
2019-03-09T03:45:04.918Z,994.28
2019-03-09T03:46:04.912Z,994.22
2019-03-09T03:47:04.905Z,994.15
2019-03-09T03:48:04.903Z,994.26
2019-03-09T03:49:04.903Z,994.26
2019-03-09T03:50:04.880Z,994.22
2019-03-09T03:51:04.848Z,994.26
2019-03-09T03:52:04.851Z,994.20
2019-03-09T03:53:04.857Z,994.22
2019-03-09T03:54:04.853Z,994.24
2019-03-09T03:55:04.820Z,994.26
2019-03-09T03:56:04.868Z,994.34
2019-03-09T03:57:04.807Z,994.28
2019-03-09T03:58:04.785Z,994.18
2019-03-09T03:59:05.408Z,994.25
2019-03-09T04:00:04.825Z,994.29
2019-03-09T04:01:04.754Z,994.28
2019-03-09T04:02:04.737Z,994.28
2019-03-09T04:03:04.723Z,994.28
2019-03-09T04:04:04.718Z,994.24
2019-03-09T04:05:04.719Z,994.15
2019-03-09T04:06:04.699Z,994.19
2019-03-09T04:07:04.680Z,994.18
2019-03-09T04:08:04.682Z,994.06
2019-03-09T04:09:04.661Z,994.11
2019-03-09T04:10:04.673Z,994.07
2019-03-09T04:11:06.036Z,994.15
2019-03-09T04:12:04.643Z,994.04
2019-03-09T04:13:04.623Z,994.04
2019-03-09T04:14:04.607Z,994.01
2019-03-09T04:15:04.605Z,993.98
2019-03-09T04:16:04.579Z,994.00
2019-03-09T04:17:04.583Z,994.04
2019-03-09T04:18:04.574Z,993.98
2019-03-09T04:19:04.559Z,994.08
2019-03-09T04:20:04.564Z,994.05
2019-03-09T04:21:04.530Z,994.06
2019-03-09T04:22:04.529Z,994.01
2019-03-09T04:23:04.511Z,994.04
2019-03-09T04:24:04.496Z,993.98
2019-03-09T04:25:04.496Z,994.01
2019-03-09T04:26:04.471Z,994.10
2019-03-09T04:27:04.463Z,993.95
2019-03-09T04:28:04.459Z,994.05
2019-03-09T04:29:04.485Z,994.06
2019-03-09T04:30:04.549Z,994.07
2019-03-09T04:31:04.419Z,994.00
2019-03-09T04:32:04.407Z,994.04
2019-03-09T04:33:04.409Z,994.04
2019-03-09T04:34:04.381Z,994.06
2019-03-09T04:35:04.394Z,994.10
2019-03-09T04:36:04.365Z,994.22
2019-03-09T04:37:04.361Z,994.18
2019-03-09T04:38:04.336Z,994.19
2019-03-09T04:39:04.358Z,994.23
2019-03-09T04:40:04.330Z,994.21
2019-03-09T04:41:04.311Z,994.30
2019-03-09T04:42:04.296Z,994.25
2019-03-09T04:43:04.288Z,994.20
2019-03-09T04:44:04.274Z,994.28
2019-03-09T04:45:04.270Z,994.35
2019-03-09T04:46:04.270Z,994.39
2019-03-09T04:47:04.246Z,994.41
2019-03-09T04:48:04.233Z,994.37
2019-03-09T04:49:04.225Z,994.44
2019-03-09T04:50:04.221Z,994.35
2019-03-09T04:51:04.210Z,994.44
2019-03-09T04:52:04.189Z,994.37
2019-03-09T04:53:04.181Z,994.34
2019-03-09T04:54:04.159Z,994.40
2019-03-09T04:55:04.166Z,994.21
2019-03-09T04:56:04.138Z,994.25
2019-03-09T04:57:04.136Z,994.31
2019-03-09T04:58:04.125Z,994.25
2019-03-09T04:59:04.123Z,994.20
2019-03-09T05:00:04.142Z,994.40
2019-03-09T05:01:04.081Z,994.31
2019-03-09T05:02:04.073Z,994.42
2019-03-09T05:03:04.066Z,994.52
2019-03-09T05:04:04.050Z,994.43
2019-03-09T05:05:04.067Z,994.46
2019-03-09T05:06:04.032Z,994.36
2019-03-09T05:07:04.018Z,994.66
2019-03-09T05:08:04.008Z,994.39
2019-03-09T05:09:04.005Z,994.53
2019-03-09T05:10:04.003Z,994.36
2019-03-09T05:11:03.984Z,994.45
2019-03-09T05:12:03.974Z,994.39
2019-03-09T05:13:03.955Z,994.49
2019-03-09T05:14:03.943Z,994.51
2019-03-09T05:15:03.946Z,994.49
2019-03-09T05:16:03.917Z,994.53
2019-03-09T05:17:03.906Z,994.48
2019-03-09T05:18:03.891Z,994.46
2019-03-09T05:19:03.881Z,994.44
2019-03-09T05:20:03.891Z,994.44
2019-03-09T05:21:03.873Z,994.45
2019-03-09T05:22:03.876Z,994.29
2019-03-09T05:23:03.852Z,994.49
2019-03-09T05:24:03.840Z,994.51
2019-03-09T05:26:13.037Z,994.52
2019-03-09T05:27:14.016Z,994.69
2019-03-09T05:28:13.998Z,994.74
2019-03-09T05:29:13.982Z,994.84
2019-03-09T05:30:13.995Z,994.97
2019-03-09T05:31:13.960Z,995.09
2019-03-09T05:32:13.949Z,995.25
2019-03-09T05:33:13.952Z,995.06
2019-03-09T05:34:13.940Z,994.99
2019-03-09T05:35:13.942Z,995.09
2019-03-09T05:36:13.913Z,995.20
2019-03-09T05:37:13.902Z,995.20
2019-03-09T05:38:13.885Z,995.22
2019-03-09T05:39:13.882Z,995.32
2019-03-09T05:40:13.890Z,995.19
2019-03-09T05:41:13.854Z,995.21
2019-03-09T05:42:13.855Z,995.10
2019-03-09T05:43:13.843Z,995.10
2019-03-09T05:44:13.830Z,995.14
2019-03-09T05:45:13.841Z,995.17
2019-03-09T05:46:13.809Z,995.36
2019-03-09T05:47:13.798Z,995.38
2019-03-09T05:48:13.780Z,995.44
2019-03-09T05:49:13.774Z,995.42
2019-03-09T05:50:13.801Z,995.44
2019-03-09T05:51:13.753Z,995.43
2019-03-09T05:52:13.753Z,995.42
2019-03-09T05:53:13.736Z,995.48
2019-03-09T05:54:13.711Z,995.51
2019-03-09T05:55:13.728Z,995.40
2019-03-09T05:56:13.689Z,995.40
2019-03-09T05:57:13.689Z,995.47
2019-03-09T05:58:13.681Z,995.42
2019-03-09T05:59:13.656Z,995.48
2019-03-09T06:00:13.675Z,995.36
2019-03-09T06:01:13.643Z,995.38
2019-03-09T06:02:13.630Z,995.45
2019-03-09T06:03:13.631Z,995.43
2019-03-09T06:04:13.613Z,995.46
2019-03-09T06:05:13.615Z,995.51
2019-03-09T06:06:13.578Z,995.41
2019-03-09T06:07:13.565Z,995.53
2019-03-09T06:08:13.567Z,995.52
2019-03-09T06:09:13.556Z,995.43
2019-03-09T06:10:13.552Z,995.38
2019-03-09T06:11:13.532Z,995.35
2019-03-09T06:12:13.514Z,995.34
2019-03-09T06:13:13.513Z,995.29
2019-03-09T06:14:13.503Z,995.33
2019-03-09T06:15:13.495Z,995.42
2019-03-09T06:16:13.494Z,995.41
2019-03-09T06:17:13.469Z,995.50
2019-03-09T06:18:13.458Z,995.48
2019-03-09T06:19:13.437Z,995.50
2019-03-09T06:20:13.432Z,995.54
2019-03-09T06:21:13.440Z,995.56
2019-03-09T06:22:13.415Z,995.54
2019-03-09T06:23:13.398Z,995.60
2019-03-09T06:24:13.382Z,995.65
2019-03-09T06:25:13.389Z,995.63
2019-03-09T06:26:13.382Z,995.61
2019-03-09T06:27:13.353Z,995.61
2019-03-09T06:28:13.349Z,995.57
2019-03-09T06:29:13.330Z,995.63
2019-03-09T06:30:13.330Z,995.71
2019-03-09T06:31:13.329Z,995.67
2019-03-09T06:32:13.305Z,995.74
2019-03-09T06:33:13.300Z,995.84
2019-03-09T06:34:13.275Z,995.78
2019-03-09T06:35:13.269Z,995.79
2019-03-09T06:36:13.269Z,995.77
2019-03-09T06:37:13.244Z,995.82
2019-03-09T06:38:13.238Z,995.92
2019-03-09T06:39:13.222Z,995.86
2019-03-09T06:40:13.217Z,995.90
2019-03-09T06:41:13.216Z,995.93
2019-03-09T06:42:13.194Z,995.93
2019-03-09T06:43:13.190Z,995.86
2019-03-09T06:44:13.177Z,995.89
2019-03-09T06:45:13.164Z,995.91
2019-03-09T06:46:13.159Z,995.80
2019-03-09T06:47:13.135Z,995.85
2019-03-09T06:48:13.134Z,995.85
2019-03-09T06:49:13.125Z,995.82
2019-03-09T06:50:13.121Z,995.94
2019-03-09T06:51:13.107Z,995.99
2019-03-09T06:52:13.764Z,996.03
2019-03-09T06:53:13.082Z,996.07
2019-03-09T06:54:13.059Z,995.95
2019-03-09T06:55:13.065Z,996.06
2019-03-09T06:56:13.049Z,996.03
2019-03-09T06:57:14.031Z,996.01
2019-03-09T06:58:13.639Z,996.13
2019-03-09T06:59:13.010Z,996.11
2019-03-09T07:00:13.001Z,995.99
2019-03-09T07:01:13.006Z,996.12
2019-03-09T07:02:12.991Z,996.19
2019-03-09T07:03:12.970Z,996.18
2019-03-09T07:04:12.949Z,996.19
2019-03-09T07:05:12.945Z,996.22
2019-03-09T07:06:12.961Z,996.15
2019-03-09T07:07:12.940Z,996.27
2019-03-09T07:08:12.938Z,996.22
2019-03-09T07:09:12.911Z,996.38
2019-03-09T07:10:12.887Z,996.33
2019-03-09T07:11:12.889Z,996.41
2019-03-09T07:12:12.877Z,996.45
2019-03-09T07:13:12.852Z,996.53
2019-03-09T07:14:12.849Z,996.53
2019-03-09T07:15:12.864Z,996.37
2019-03-09T07:16:12.842Z,996.47
2019-03-09T07:17:12.803Z,996.50
2019-03-09T07:18:12.795Z,996.44
2019-03-09T07:19:12.799Z,996.49
2019-03-09T07:20:13.169Z,996.46
2019-03-09T07:21:12.790Z,996.50
2019-03-09T07:22:12.759Z,996.53
2019-03-09T07:23:12.752Z,996.58
2019-03-09T07:24:12.735Z,996.50
2019-03-09T07:25:12.728Z,996.39
2019-03-09T07:27:21.930Z,996.53
2019-03-09T07:28:22.901Z,996.55
2019-03-09T07:29:22.883Z,996.61
2019-03-09T07:30:22.866Z,996.44
2019-03-09T07:31:22.886Z,996.67
2019-03-09T07:32:22.855Z,996.70
2019-03-09T07:33:22.845Z,996.63
2019-03-09T07:34:22.833Z,996.67
2019-03-09T07:35:22.817Z,996.70
2019-03-09T07:36:22.831Z,996.64
2019-03-09T07:37:22.795Z,996.76
2019-03-09T07:38:22.792Z,996.75
2019-03-09T07:39:22.765Z,996.74
2019-03-09T07:40:22.763Z,996.57
2019-03-09T07:41:22.768Z,996.68
2019-03-09T07:42:22.765Z,996.67
2019-03-09T07:43:22.737Z,996.71
2019-03-09T07:44:22.720Z,996.77
2019-03-09T07:45:22.697Z,996.70
2019-03-09T07:46:22.695Z,996.83
2019-03-09T07:47:22.710Z,996.76
2019-03-09T07:48:22.668Z,996.74
2019-03-09T07:49:22.656Z,996.74
2019-03-09T07:50:22.645Z,996.79
2019-03-09T07:51:22.639Z,996.78
2019-03-09T07:52:22.652Z,996.73
2019-03-09T07:53:22.633Z,996.80
2019-03-09T07:54:22.611Z,996.93
2019-03-09T07:55:22.585Z,996.78
2019-03-09T07:56:22.600Z,996.92
2019-03-09T07:57:22.583Z,997.02
2019-03-09T07:58:22.562Z,997.05
2019-03-09T07:59:22.550Z,996.96
2019-03-09T08:00:22.546Z,996.84
2019-03-09T08:01:23.995Z,996.92
2019-03-09T08:02:22.540Z,997.00
2019-03-09T08:03:22.515Z,997.06
2019-03-09T08:04:22.504Z,997.01
2019-03-09T08:05:22.480Z,997.10
2019-03-09T08:06:22.472Z,996.99
2019-03-09T08:07:22.471Z,997.00
2019-03-09T08:08:22.457Z,996.97
2019-03-09T08:09:24.519Z,996.90
2019-03-09T08:10:22.423Z,996.96
2019-03-09T08:11:22.430Z,996.96
2019-03-09T08:12:24.054Z,997.04
2019-03-09T08:13:22.404Z,996.79
2019-03-09T08:14:22.394Z,996.99
2019-03-09T08:15:22.376Z,997.10
2019-03-09T08:16:22.366Z,997.07
2019-03-09T08:17:22.392Z,997.13
2019-03-09T08:18:22.355Z,997.08
2019-03-09T08:19:22.343Z,997.06
2019-03-09T08:20:22.330Z,997.01
2019-03-09T08:21:22.326Z,997.10
2019-03-09T08:22:22.317Z,997.13
2019-03-09T08:23:22.292Z,997.04
2019-03-09T08:24:22.289Z,997.11
2019-03-09T08:25:22.280Z,996.73
2019-03-09T08:26:22.248Z,996.80
2019-03-09T08:27:22.276Z,997.23
2019-03-09T08:28:22.271Z,997.05
2019-03-09T08:29:22.236Z,997.00
2019-03-09T08:30:22.217Z,996.95
2019-03-09T08:31:22.206Z,997.06
2019-03-09T08:32:22.209Z,997.05
2019-03-09T08:33:22.185Z,997.13
2019-03-09T08:34:22.171Z,997.05
2019-03-09T08:35:22.206Z,997.07
2019-03-09T08:36:22.138Z,997.00
2019-03-09T08:37:22.178Z,997.05
2019-03-09T08:38:22.140Z,996.98
2019-03-09T08:39:22.138Z,997.04
2019-03-09T08:40:22.142Z,996.94
2019-03-09T08:41:22.105Z,997.03
2019-03-09T08:42:22.140Z,997.02
2019-03-09T08:43:22.076Z,996.93
2019-03-09T08:44:22.063Z,997.01
2019-03-09T08:45:22.051Z,996.99
2019-03-09T08:46:22.046Z,997.06
2019-03-09T08:47:22.086Z,997.00
2019-03-09T08:48:22.008Z,997.07
2019-03-09T08:49:22.020Z,997.04
2019-03-09T08:50:21.990Z,997.00
2019-03-09T08:51:21.969Z,996.88
2019-03-09T08:52:21.989Z,996.99
2019-03-09T08:53:22.066Z,997.01
2019-03-09T08:54:21.968Z,997.05
2019-03-09T08:55:21.987Z,997.01
2019-03-09T08:56:21.958Z,996.77
2019-03-09T08:57:21.925Z,996.91
2019-03-09T08:58:21.941Z,996.95
2019-03-09T08:59:21.886Z,996.93
2019-03-09T09:00:21.894Z,997.00
2019-03-09T09:01:21.865Z,997.09
2019-03-09T09:02:21.873Z,996.98
2019-03-09T09:03:21.875Z,997.08
2019-03-09T09:04:21.840Z,996.85
2019-03-09T09:05:21.828Z,997.08
2019-03-09T09:06:21.809Z,997.08
2019-03-09T09:07:21.809Z,997.07
2019-03-09T09:08:21.806Z,997.04
2019-03-09T09:09:21.802Z,997.03
2019-03-09T09:10:21.767Z,997.12
2019-03-09T09:11:21.770Z,997.02
2019-03-09T09:12:21.766Z,997.10
2019-03-09T09:13:21.759Z,997.03
2019-03-09T09:14:21.736Z,997.04
2019-03-09T09:15:21.721Z,997.11
2019-03-09T09:16:21.722Z,997.06
2019-03-09T09:17:21.696Z,997.11
2019-03-09T09:18:21.702Z,997.11
2019-03-09T09:19:21.680Z,997.02
2019-03-09T09:20:21.654Z,997.07
2019-03-09T09:21:21.651Z,997.01
2019-03-09T09:22:21.632Z,997.18
2019-03-09T09:23:21.636Z,997.14
2019-03-09T09:24:21.635Z,997.00
2019-03-09T09:25:21.650Z,997.10
2019-03-09T09:26:21.604Z,997.16
2019-03-09T09:28:30.792Z,997.00
2019-03-09T09:29:31.766Z,997.10
2019-03-09T09:30:31.750Z,996.98
2019-03-09T09:31:31.735Z,997.00
2019-03-09T09:32:31.720Z,997.03
2019-03-09T09:33:31.726Z,996.99
2019-03-09T09:34:31.712Z,996.86
2019-03-09T09:35:31.694Z,996.87
2019-03-09T09:36:31.675Z,996.85
2019-03-09T09:37:31.669Z,996.83
2019-03-09T09:38:31.716Z,996.70
2019-03-09T09:39:31.652Z,996.76
2019-03-09T09:40:31.642Z,996.73
2019-03-09T09:41:31.640Z,996.72
2019-03-09T09:42:31.630Z,996.79
2019-03-09T09:43:31.642Z,996.67
2019-03-09T09:44:31.593Z,996.78
2019-03-09T09:45:31.602Z,996.64
2019-03-09T09:46:31.570Z,996.63
2019-03-09T09:47:31.565Z,996.79
2019-03-09T09:48:31.580Z,996.56
2019-03-09T09:49:31.536Z,996.66
2019-03-09T09:50:31.545Z,996.62
2019-03-09T09:51:31.526Z,996.55
2019-03-09T09:52:31.512Z,996.64
2019-03-09T09:53:31.525Z,996.59
2019-03-09T09:54:31.492Z,996.51
2019-03-09T09:55:31.481Z,996.65
2019-03-09T09:56:31.476Z,996.62
2019-03-09T09:57:31.454Z,996.58
2019-03-09T09:58:31.449Z,996.63
2019-03-09T09:59:31.430Z,996.62
2019-03-09T10:00:31.425Z,996.55
2019-03-09T10:01:31.413Z,996.52
2019-03-09T10:02:31.409Z,996.53
2019-03-09T10:03:31.552Z,996.56
2019-03-09T10:04:31.375Z,996.54
2019-03-09T10:05:31.362Z,996.46
2019-03-09T10:06:31.349Z,996.44
2019-03-09T10:07:31.343Z,996.60
2019-03-09T10:08:31.356Z,996.62
2019-03-09T10:09:31.314Z,996.78
2019-03-09T10:10:31.317Z,996.87
2019-03-09T10:11:31.302Z,996.78
2019-03-09T10:12:31.288Z,996.85
2019-03-09T10:13:31.303Z,996.82
2019-03-09T10:14:31.268Z,996.79
2019-03-09T10:15:31.248Z,996.77
2019-03-09T10:16:31.249Z,996.75
2019-03-09T10:17:31.238Z,996.73
2019-03-09T10:18:31.245Z,996.61
2019-03-09T10:19:31.210Z,996.67
2019-03-09T10:20:31.189Z,996.74
2019-03-09T10:21:31.189Z,996.71
2019-03-09T10:22:31.182Z,996.77
2019-03-09T10:23:31.179Z,996.71
2019-03-09T10:24:31.154Z,996.70
2019-03-09T10:25:31.148Z,996.77
2019-03-09T10:26:31.147Z,996.63
2019-03-09T10:27:31.123Z,996.71
2019-03-09T10:28:31.125Z,996.69
2019-03-09T10:29:31.098Z,996.84
2019-03-09T10:30:31.087Z,996.77
2019-03-09T10:31:31.133Z,996.75
2019-03-09T10:32:31.059Z,996.75
2019-03-09T10:33:31.071Z,996.80
2019-03-09T10:34:31.069Z,996.68
2019-03-09T10:35:31.041Z,996.72
2019-03-09T10:36:31.025Z,996.79
2019-03-09T10:37:31.005Z,996.71
2019-03-09T10:38:31.024Z,996.73
2019-03-09T10:39:30.995Z,996.70
2019-03-09T10:40:30.982Z,996.55
2019-03-09T10:41:30.979Z,996.63
2019-03-09T10:42:30.969Z,996.61
2019-03-09T10:43:30.949Z,996.53
2019-03-09T10:44:30.944Z,996.59
2019-03-09T10:45:30.917Z,996.57
2019-03-09T10:46:30.908Z,996.54
2019-03-09T10:47:30.904Z,996.24
2019-03-09T10:48:30.893Z,996.34
2019-03-09T10:49:30.886Z,996.37
2019-03-09T10:50:30.857Z,996.24
2019-03-09T10:51:30.862Z,996.28
2019-03-09T10:52:30.840Z,996.26
2019-03-09T10:53:30.854Z,996.21
2019-03-09T10:54:35.972Z,996.34
2019-03-09T10:55:30.810Z,996.28
2019-03-09T10:56:30.793Z,996.28
2019-03-09T10:57:30.787Z,996.31
2019-03-09T10:58:30.769Z,996.43
2019-03-09T10:59:30.790Z,996.33
2019-03-09T11:00:30.763Z,996.22
2019-03-09T11:01:30.744Z,996.31
2019-03-09T11:02:30.732Z,996.31
2019-03-09T11:03:30.725Z,996.46
2019-03-09T11:04:30.733Z,996.38
2019-03-09T11:05:30.695Z,996.34
2019-03-09T11:06:30.686Z,996.36
2019-03-09T11:07:30.672Z,996.43
2019-03-09T11:08:30.663Z,996.36
2019-03-09T11:09:30.678Z,996.31
2019-03-09T11:10:30.641Z,996.33
2019-03-09T11:11:30.639Z,996.40
2019-03-09T11:12:30.633Z,996.33
2019-03-09T11:13:30.628Z,996.35
2019-03-09T11:14:30.612Z,996.38
2019-03-09T11:15:30.594Z,996.33
2019-03-09T11:16:30.598Z,996.41
2019-03-09T11:17:30.585Z,996.36
2019-03-09T11:18:30.562Z,996.37
2019-03-09T11:19:30.567Z,996.31
2019-03-09T11:20:30.536Z,996.34
2019-03-09T11:21:30.519Z,996.21
2019-03-09T11:22:30.509Z,996.18
2019-03-09T11:23:30.555Z,996.25
2019-03-09T11:24:30.523Z,996.26
2019-03-09T11:25:30.487Z,996.27
2019-03-09T11:26:30.470Z,996.34
2019-03-09T11:27:30.457Z,996.31
2019-03-09T11:29:39.679Z,996.31
2019-03-09T11:30:40.620Z,996.32
2019-03-09T11:31:40.609Z,996.13
2019-03-09T11:32:40.612Z,996.14
2019-03-09T11:33:40.591Z,996.06
2019-03-09T11:34:40.600Z,996.12
2019-03-09T11:35:40.570Z,996.05
2019-03-09T11:36:40.557Z,995.94
2019-03-09T11:37:40.552Z,995.98
2019-03-09T11:38:40.540Z,996.09
2019-03-09T11:39:40.553Z,996.09
2019-03-09T11:40:40.520Z,996.02
2019-03-09T11:41:40.496Z,996.07
2019-03-09T11:42:40.500Z,996.01
2019-03-09T11:43:40.474Z,995.99
2019-03-09T11:44:40.489Z,996.00
2019-03-09T11:45:40.461Z,995.96
2019-03-09T11:46:40.456Z,995.95
2019-03-09T11:47:40.435Z,996.00
2019-03-09T11:48:40.431Z,995.80
2019-03-09T11:49:40.440Z,995.89
2019-03-09T11:50:40.414Z,995.79
2019-03-09T11:51:40.398Z,995.67
2019-03-09T11:52:40.382Z,995.76
2019-03-09T11:53:40.375Z,995.80
2019-03-09T11:54:40.382Z,995.65
2019-03-09T11:55:40.350Z,995.88
2019-03-09T11:56:40.340Z,995.90
2019-03-09T11:57:40.335Z,995.79
2019-03-09T11:58:40.317Z,995.71
2019-03-09T11:59:40.327Z,995.84
2019-03-09T12:00:40.287Z,995.80
2019-03-09T12:01:40.285Z,995.81
2019-03-09T12:02:40.281Z,995.73
2019-03-09T12:03:40.255Z,995.71
2019-03-09T12:04:46.797Z,995.76
2019-03-09T12:05:40.240Z,995.78
2019-03-09T12:06:40.229Z,995.69
2019-03-09T12:07:40.211Z,995.75
2019-03-09T12:08:40.200Z,995.68
2019-03-09T12:09:40.218Z,995.71
2019-03-09T12:10:40.180Z,995.66
2019-03-09T12:11:40.165Z,995.64
2019-03-09T12:12:40.172Z,995.74
2019-03-09T12:13:40.189Z,995.74
2019-03-09T12:14:40.155Z,995.79
2019-03-09T12:15:40.137Z,995.74
2019-03-09T12:16:40.109Z,995.76
2019-03-09T12:17:40.102Z,995.73
2019-03-09T12:18:40.094Z,995.76
2019-03-09T12:19:40.076Z,995.71
2019-03-09T12:20:40.082Z,995.55
2019-03-09T12:21:40.055Z,995.65
2019-03-09T12:22:40.037Z,995.61
2019-03-09T12:23:40.040Z,995.52
2019-03-09T12:24:40.033Z,995.62
2019-03-09T12:25:40.034Z,995.47
2019-03-09T12:26:40.015Z,995.43
2019-03-09T12:27:39.992Z,995.51
2019-03-09T12:28:39.976Z,995.55
2019-03-09T12:29:39.971Z,995.49
2019-03-09T12:30:39.968Z,995.40
2019-03-09T12:31:39.976Z,995.46
2019-03-09T12:32:39.938Z,995.27
2019-03-09T12:33:39.923Z,995.55
2019-03-09T12:34:39.918Z,994.80
2019-03-09T12:35:39.933Z,995.44